Date,TemperatureHighF,TemperatureAvgF,TemperatureLowF,DewpointHighF,DewpointAvgF,DewpointLowF,HumidityHigh,HumidityAvg,HumidityLow,PressureMaxIn,PressureMinIn,WindSpeedMaxMPH,WindSpeedAvgMPH,GustSpeedMaxMPH,PrecipitationSumIn
2014-1-1,37.4,27.5,21.2,23.8,13.2,-99.9,78,63,54,30.36,30.14,13,-23,13,0.00
2014-1-2,31.8,25.3,19.0,26.4,14.6,-99.9,93,79,71,30.14,29.58,21,-16,21,0.00
2014-1-3,18.9,13.6,6.6,17.0,7.6,-1.0,93,77,59,30.44,29.56,31,5,31,0.00
2014-1-4,27.5,14.9,1.8,15.3,7.0,-3.2,88,72,53,30.49,30.25,17,3,17,0.00
2014-1-5,43.6,29.3,13.7,42.7,27.9,11.1,98,94,87,30.26,29.67,13,1,13,0.62
2014-1-6,58.2,40.1,9.7,57.8,33.0,-8.5,99,77,41,29.85,29.35,34,-2,34,0.53
2014-1-7,9.7,6.5,1.5,-1.5,-8.4,-13.6,61,50,44,30.39,29.84,36,9,36,0.00
2014-1-8,22.3,15.1,7.4,12.4,1.9,-3.8,68,56,39,30.54,30.39,19,-91,19,0.00
2014-1-9,33.3,25.8,19.7,19.3,14.1,11.4,75,61,44,30.62,30.45,12,1,12,0.00
2014-1-10,34.7,30.8,25.8,33.9,28.0,19.0,97,89,74,30.53,30.11,6,-265,6,0.40
2014-1-11,61.0,51.3,34.7,60.4,50.6,33.9,100,97,94,30.12,29.30,28,6,28,0.59
2014-1-12,51.3,40.7,30.7,49.6,32.1,27.4,94,72,60,30.07,29.40,29,6,29,0.00
2014-1-13,55.8,42.3,27.4,38.7,33.4,25.8,96,73,48,30.08,29.82,18,-10,18,0.00
2014-1-14,49.3,45.7,39.1,45.7,42.5,38.1,97,89,67,29.83,29.65,19,-64,19,0.22
2014-1-15,50.8,40.2,32.8,46.8,38.3,32.0,98,93,75,29.95,29.82,13,2,13,0.01
2014-1-16,38.4,33.9,27.0,35.4,27.7,20.3,89,78,64,29.93,29.81,13,2,14,0.00
2014-1-17,43.5,33.2,24.1,31.6,26.3,19.8,91,76,57,29.93,29.80,11,1,11,0.00
2014-1-18,36.3,30.8,21.4,32.9,23.3,11.4,94,74,59,29.88,29.66,23,5,23,0.02
2014-1-19,38.1,28.7,20.3,25.4,17.3,-99.9,72,64,56,29.85,29.64,27,-54,27,0.00
2014-1-20,47.7,39.1,34.7,30.8,27.3,22.7,74,63,47,29.82,29.55,26,5,26,0.00
2014-1-21,35.4,20.5,12.2,26.0,12.8,-99.9,92,78,59,29.91,29.75,29,-88,29,0.00
2014-1-22,15.4,8.8,2.1,8.3,-3.6,-99.9,86,62,46,29.99,29.75,19,-122,24,0.00
2014-1-23,20.1,12.4,3.7,9.3,2.3,-3.2,76,64,52,30.29,29.99,25,4,25,0.00
2014-1-24,18.1,13.1,7.1,4.4,1.3,-1.0,72,59,48,30.38,30.03,22,5,22,0.00
2014-1-25,25.7,20.5,15.7,22.0,12.6,3.8,91,73,53,30.03,29.42,24,7,24,0.00
2014-1-26,25.4,21.2,13.3,21.7,10.2,0.7,87,63,45,29.88,29.47,21,5,21,0.01
2014-1-27,44.7,28.3,19.5,31.1,16.2,0.5,84,62,40,30.07,29.57,31,5,31,0.02
2014-1-28,19.4,13.7,10.1,3.6,-2.5,-4.6,68,48,41,30.35,30.07,19,4,22,0.00
2014-1-29,20.1,13.7,9.6,9.0,0.6,-5.7,92,57,38,30.28,30.10,20,4,20,0.00
2014-1-30,27.9,18.0,5.9,9.8,3.9,-0.7,76,55,37,30.42,30.15,9,-2,10,0.01
2014-1-31,42.4,30.4,19.0,24.6,17.9,9.8,88,61,36,30.19,30.06,17,-54,17,0.00
2014-2-1,47.6,36.7,29.3,30.8,25.2,21.5,92,65,39,30.27,29.95,16,2,16,0.00
2014-2-2,52.7,39.8,27.5,38.0,32.6,25.7,96,78,50,30.03,29.87,11,1,11,0.00
2014-2-3,40.4,32.7,25.6,36.5,31.0,23.8,97,94,81,30.27,30.00,19,-8,19,0.30
2014-2-4,33.3,26.2,18.1,27.9,22.7,15.2,93,87,73,30.42,30.15,10,1,10,0.20
2014-2-5,32.1,30.9,29.0,31.1,29.5,27.0,96,95,92,30.16,29.83,9,0,9,0.00
2014-2-6,29.1,10.7,21.3,18.9,-51.3,-99.9,77,28,62,30.25,29.96,13,3,13,0.14
2014-2-7,32.1,18.5,17.9,20.1,-22.9,-99.9,91,43,56,30.29,30.18,16,2,16,0.11
2014-2-8,26.7,23.1,18.1,18.8,12.5,5.1,83,64,42,30.30,30.11,10,1,10,0.00
2014-2-9,27.9,24.0,20.5,25.3,16.9,12.5,100,75,56,30.14,29.95,12,1,12,0.00
2014-2-10,27.9,22.7,15.5,21.5,12.1,7.3,93,65,47,30.25,29.97,21,-7,21,0.01
2014-2-11,25.0,18.2,10.9,8.5,6.2,3.1,79,60,43,30.44,30.24,18,-86,18,0.00
2014-2-12,23.9,17.1,5.1,18.3,8.2,-0.4,91,68,52,30.51,30.19,16,-53,16,0.00
2014-2-13,34.1,29.9,20.5,32.9,28.6,18.3,96,95,91,30.19,29.05,34,9,34,0.01
2014-2-14,42.6,34.3,28.2,30.1,27.1,23.0,96,76,54,29.72,29.07,35,7,35,0.10
2014-2-15,35.6,32.2,26.6,31.7,26.4,15.3,94,79,61,29.77,29.51,26,4,26,0.06
2014-2-16,26.6,23.1,18.6,15.7,12.0,9.0,74,62,53,30.10,29.77,20,-30,20,0.03
2014-2-17,30.8,22.2,15.4,14.4,6.6,-99.9,76,55,37,30.36,30.10,17,-50,17,0.02
2014-2-18,42.6,31.5,23.7,34.0,25.8,13.2,94,80,61,30.23,29.91,19,2,19,0.22
2014-2-19,43.4,35.2,26.6,39.4,31.8,24.2,96,87,68,30.04,29.63,23,3,23,0.30
2014-2-20,49.6,41.0,30.1,31.9,28.7,24.4,85,63,43,30.22,29.93,12,-129,12,0.00
2014-2-21,53.7,39.8,33.4,52.8,38.5,31.4,100,95,74,29.93,29.56,30,2,30,0.18
2014-2-22,54.1,41.8,29.3,35.2,29.2,22.2,97,66,29,30.02,29.88,21,5,31,0.00
2014-2-23,52.1,44.9,36.6,36.0,32.3,29.1,88,63,42,29.97,29.82,15,-33,15,0.02
2014-2-24,37.2,33.6,27.5,33.9,18.7,11.0,91,56,39,30.06,29.80,34,6,34,0.02
2014-2-25,32.4,26.7,20.6,23.3,15.4,11.5,84,62,51,30.06,29.91,19,4,21,0.00
2014-2-26,30.0,24.6,15.3,24.2,12.4,1.2,91,61,36,29.93,29.78,26,4,26,0.03
2014-2-27,31.9,20.8,10.8,17.6,6.2,-9.3,77,54,34,30.09,29.58,31,6,31,0.00
2014-2-28,22.6,14.6,7.3,2.7,-4.1,-11.0,61,43,30,30.37,30.09,15,-9,15,0.00
2014-3-1,36.9,25.5,10.5,21.1,12.2,0.4,82,58,39,30.36,30.11,12,1,12,0.00
2014-3-2,39.4,34.2,29.6,32.3,28.0,20.3,93,78,59,30.12,29.93,15,1,15,0.07
2014-3-3,31.1,19.8,13.6,23.9,9.6,1.9,92,65,50,30.29,29.94,20,-110,20,0.00
2014-3-4,29.1,19.0,10.1,14.7,4.1,-99.9,69,54,39,30.37,30.19,12,1,12,0.07
2014-3-5,40.3,28.6,17.4,16.3,13.0,5.7,81,54,28,30.37,30.14,20,2,20,0.00
2014-3-6,29.9,23.1,16.9,17.3,7.0,-99.9,72,56,43,30.56,30.37,13,4,20,0.00
2014-3-7,36.7,30.5,24.5,28.9,23.8,16.8,79,76,72,30.39,29.85,17,4,17,0.00
2014-3-8,54.4,43.4,30.7,35.3,31.9,27.5,93,66,43,29.87,29.75,27,-8,27,0.00
2014-3-9,44.2,38.9,35.6,35.9,25.6,17.3,91,61,40,29.98,29.84,19,-33,19,0.03
2014-3-10,53.2,43.3,35.4,34.3,27.5,19.8,64,54,46,29.92,29.55,12,4,20,0.00
2014-3-11,62.9,50.9,40.3,42.2,37.1,30.9,73,60,43,29.63,29.52,17,-70,17,0.00
2014-3-12,66.6,51.5,28.6,54.3,43.5,20.4,94,75,50,29.61,28.96,29,5,40,0.27
2014-3-13,30.0,24.5,18.2,20.1,5.9,-0.3,71,46,30,30.07,29.18,27,-10,35,0.00
2014-3-14,48.2,34.2,20.7,28.8,15.9,2.2,60,47,33,30.18,29.83,24,6,24,0.00
2014-3-15,59.1,50.2,43.9,35.1,29.3,24.8,55,45,34,29.97,29.72,30,7,30,0.00
2014-3-16,43.8,35.3,29.7,27.2,15.9,9.4,60,45,33,30.14,29.97,18,4,19,0.00
2014-3-17,30.9,26.7,20.0,20.8,14.4,7.3,91,61,40,30.06,29.96,15,3,23,0.00
2014-3-18,42.4,34.0,28.3,26.3,17.3,9.3,73,52,26,30.22,30.05,24,4,24,0.00
2014-3-19,44.3,37.7,30.2,42.3,34.1,23.2,97,87,74,30.22,29.77,16,3,23,0.86
2014-3-20,52.2,44.9,40.4,42.9,34.7,25.4,97,71,41,29.90,29.70,30,6,30,0.00
2014-3-21,52.3,42.0,32.3,27.8,24.9,20.3,76,52,30,30.00,29.89,22,4,22,0.00
2014-3-22,65.0,49.5,35.3,39.6,32.1,22.5,81,54,29,29.98,29.72,28,5,28,0.00
2014-3-23,47.3,39.0,28.4,29.6,22.8,11.5,69,52,38,30.08,29.91,17,3,17,0.00
2014-3-24,33.8,26.6,19.8,11.8,7.8,5.0,58,45,32,30.23,30.06,21,4,21,0.00
2014-3-25,38.0,28.7,20.0,27.9,18.8,7.0,92,67,44,30.11,29.81,17,-8,17,0.00
2014-3-26,34.1,30.3,26.2,26.8,15.1,4.5,91,57,31,30.20,29.73,37,7,37,0.01
2014-3-27,42.3,31.7,19.3,23.7,12.2,4.7,65,45,29,30.37,30.19,21,3,21,0.00
2014-3-28,62.4,49.4,31.8,52.4,42.0,23.5,90,76,65,30.20,29.91,35,-36,35,0.05
2014-3-29,57.0,48.0,43.6,50.2,45.2,42.3,97,90,77,30.08,29.57,26,4,26,1.69
2014-3-30,46.2,43.4,37.4,45.5,42.0,34.6,100,95,88,29.66,29.41,26,6,26,0.83
2014-3-31,54.4,43.9,35.4,38.9,34.3,31.6,93,71,46,30.03,29.66,28,7,28,0.05
2014-4-1,58.6,46.9,34.2,39.8,33.8,29.1,83,62,42,30.10,29.93,9,2,11,0.00
2014-4-2,59.8,47.4,38.5,48.8,41.2,35.1,94,80,58,30.09,29.97,9,1,9,0.06
2014-4-3,64.1,54.3,45.9,45.2,35.2,24.1,91,53,25,30.08,29.90,16,2,16,0.17
2014-4-4,45.9,43.0,41.0,41.5,40.5,38.8,100,91,84,29.99,29.68,25,5,25,0.07
2014-4-5,52.1,45.5,39.4,43.0,35.5,27.4,98,70,47,30.06,29.67,30,6,30,0.00
2014-4-6,57.8,44.6,32.7,32.8,26.0,21.7,71,50,26,30.17,30.05,12,2,15,0.00
2014-4-7,49.2,43.0,34.5,46.8,38.5,30.4,97,84,61,30.16,29.60,30,3,30,0.22
2014-4-8,63.1,55.6,46.8,56.5,47.0,36.0,98,76,48,29.61,29.40,32,7,32,0.15
2014-4-9,61.7,51.2,40.1,39.3,33.9,27.4,81,54,29,29.99,29.59,21,3,21,0.00
2014-4-10,64.8,51.7,33.9,38.8,33.3,27.8,81,51,32,30.17,29.98,30,5,30,0.00
2014-4-11,75.4,61.9,53.4,53.2,45.2,35.0,85,56,34,30.00,29.87,15,3,19,0.00
2014-4-12,70.9,61.0,50.5,52.9,43.2,33.8,93,58,29,30.18,29.96,18,2,18,0.00
2014-4-13,80.5,65.1,50.9,58.3,51.5,34.3,89,63,42,30.13,29.91,26,6,26,0.00
2014-4-14,76.1,68.1,62.1,60.4,57.3,54.1,84,70,48,29.97,29.77,32,9,32,0.00
2014-4-15,68.2,57.4,34.0,64.4,54.3,31.7,96,89,75,29.92,29.46,37,9,37,1.01
2014-4-16,46.6,37.3,28.9,32.4,22.1,14.4,91,55,38,30.52,29.89,30,6,30,0.01
2014-4-17,48.4,40.0,32.0,33.5,27.6,20.5,82,61,48,30.66,30.52,23,5,23,0.00
2014-4-18,52.0,42.8,36.5,38.3,32.8,30.0,82,68,48,30.58,30.22,15,2,15,0.00
2014-4-19,65.0,51.8,37.3,41.3,34.7,27.2,96,58,24,30.27,30.17,18,2,18,0.00
2014-4-20,56.6,49.5,39.8,36.5,31.3,24.3,67,50,38,30.41,30.27,22,4,22,0.00
2014-4-21,68.4,51.6,32.0,45.3,31.3,23.2,82,50,20,30.27,29.83,12,1,12,0.00
2014-4-22,73.0,58.6,47.4,56.1,49.5,44.9,93,73,46,29.83,29.49,27,4,27,0.01
2014-4-23,58.3,51.2,43.7,49.5,37.1,27.2,81,59,48,29.85,29.50,31,8,31,0.01
2014-4-24,61.9,50.0,40.1,28.8,22.3,14.9,60,36,18,29.98,29.83,27,5,27,0.00
2014-4-25,65.2,51.2,36.5,45.0,29.0,17.1,84,45,25,30.00,29.68,24,4,24,0.09
2014-4-26,68.5,55.7,45.1,50.1,46.1,42.8,96,73,45,29.83,29.63,26,4,26,0.35
2014-4-27,59.4,51.3,43.7,46.2,37.4,34.3,87,60,43,30.08,29.83,21,3,21,0.00
2014-4-28,61.8,51.2,37.8,43.1,38.1,33.1,85,63,41,30.09,29.95,12,2,14,0.00
2014-4-29,50.3,45.7,41.9,44.1,41.1,39.6,94,84,73,30.30,30.03,32,8,32,0.23
2014-4-30,57.8,46.5,41.4,57.2,45.5,40.1,98,96,94,30.27,29.84,32,-18,32,3.67
2014-5-1,76.7,65.4,57.8,63.4,58.9,51.3,100,82,43,29.84,29.64,20,3,20,0.11
2014-5-2,65.1,59.7,53.8,52.4,42.7,37.7,79,54,40,29.83,29.68,24,4,24,0.01
2014-5-3,68.5,58.0,47.9,51.7,44.7,39.9,89,63,40,29.85,29.69,23,-43,23,0.00
2014-5-4,62.1,56.0,48.3,50.1,41.1,29.7,87,60,31,29.80,29.67,31,5,31,0.01
2014-5-5,66.6,56.4,45.1,39.5,34.3,25.9,70,46,23,29.90,29.79,21,-10,21,0.00
2014-5-6,70.3,57.1,45.9,42.2,36.0,30.0,65,46,29,30.02,29.83,18,2,18,0.00
2014-5-7,66.3,56.2,45.3,47.7,38.2,32.7,76,52,32,30.18,30.02,14,2,14,0.00
2014-5-8,64.2,57.1,52.7,58.2,53.7,47.4,96,89,76,30.13,30.00,17,1,17,0.03
2014-5-9,69.8,61.2,55.1,63.7,58.8,53.8,98,92,81,30.11,29.91,17,2,17,0.00
2014-5-10,80.1,67.1,60.8,69.1,63.2,59.9,98,88,61,29.91,29.83,25,3,25,0.05
2014-5-11,78.1,67.8,59.4,60.9,54.5,47.2,96,66,36,30.06,29.85,15,3,15,0.02
2014-5-12,83.4,69.6,54.8,65.5,58.2,49.9,89,69,44,30.09,29.98,10,2,14,0.00
2014-5-13,70.5,63.7,51.9,65.4,55.6,46.2,96,76,53,30.23,29.97,10,3,18,0.01
2014-5-14,67.8,55.0,50.6,62.4,45.4,-99.9,95,82,78,30.27,30.16,16,2,16,0.00
2014-5-15,79.5,40.7,59.2,71.2,-6.6,-99.9,98,46,69,30.17,29.98,28,5,28,0.00
2014-5-16,69.5,65.6,57.4,67.3,63.6,56.0,97,93,87,29.98,29.75,32,7,32,1.09
2014-5-17,65.6,57.7,48.6,55.9,48.1,42.0,96,73,44,30.11,29.85,16,2,16,0.00
2014-5-18,64.5,56.0,46.7,49.1,42.5,36.1,83,62,38,30.18,30.10,16,2,16,0.00
2014-5-19,69.8,58.6,44.8,45.2,41.3,37.4,80,55,33,30.22,30.08,20,3,20,0.00
2014-5-20,73.6,63.4,47.9,53.6,47.1,43.3,85,58,36,30.14,29.97,16,2,16,0.02
2014-5-21,68.4,62.9,58.3,60.3,56.3,51.5,95,80,56,30.01,29.85,11,1,11,0.01
2014-5-22,70.1,63.4,60.4,65.7,61.6,59.0,97,94,83,29.85,29.72,13,1,13,0.19
2014-5-23,72.3,63.4,56.0,62.8,55.4,50.3,98,77,50,29.94,29.78,19,2,19,0.00
2014-5-24,68.3,60.7,54.5,59.1,54.5,50.2,95,80,65,30.07,29.92,18,2,18,0.02
2014-5-25,79.3,66.1,52.5,58.7,52.0,46.9,97,65,34,30.09,30.01,18,2,18,0.01
2014-5-26,83.3,72.4,58.2,60.1,54.7,48.0,76,56,37,30.07,29.89,19,4,19,0.00
2014-5-27,84.9,75.5,65.6,68.3,60.6,54.9,72,60,52,29.90,29.77,34,2,34,0.01
2014-5-28,66.8,60.4,53.6,65.9,59.0,50.4,97,95,89,30.12,29.76,19,2,19,0.31
2014-5-29,58.6,54.7,51.5,52.9,49.8,47.2,89,84,76,30.20,30.11,12,1,12,0.00
2014-5-30,75.5,62.8,52.7,59.2,54.7,50.7,96,77,50,30.13,29.97,12,-10,12,0.01
2014-5-31,72.1,64.1,56.3,53.8,50.3,44.8,80,63,39,30.26,30.05,25,3,25,0.00
2014-6-1,75.7,63.1,47.8,56.2,48.6,40.7,96,63,30,30.34,30.21,13,1,13,0.00
2014-6-2,79.2,67.4,51.5,59.6,53.0,41.6,87,61,47,30.25,30.01,17,3,17,0.00
2014-6-3,85.7,72.1,60.8,73.4,64.6,55.6,94,78,55,30.01,29.77,25,1,25,0.11
2014-6-4,82.0,73.2,64.0,67.1,60.8,52.8,91,67,40,29.82,29.70,13,-33,13,0.01
2014-6-5,77.0,66.4,59.6,64.0,57.9,53.1,96,76,44,29.79,29.58,18,3,18,0.15
2014-6-6,74.8,62.2,55.2,57.5,45.2,-99.9,86,62,49,29.94,29.77,15,2,15,0.00
2014-6-7,81.3,68.7,57.3,60.6,56.2,51.9,83,66,43,29.99,29.89,13,1,13,0.00
2014-6-8,81.7,71.9,58.3,64.3,58.5,53.4,96,65,38,29.93,29.82,15,2,15,0.00
2014-6-9,76.2,68.4,63.6,71.0,65.4,55.9,98,91,61,29.89,29.83,14,1,14,1.28
2014-6-10,80.3,71.2,66.6,73.4,69.1,66.0,99,94,76,29.93,29.85,15,1,15,0.00
2014-6-11,70.2,64.3,60.1,68.4,62.6,59.2,98,95,88,30.06,29.92,15,3,18,0.01
2014-6-12,71.5,65.3,59.7,70.6,64.5,59.1,99,98,91,30.05,29.86,18,2,18,0.24
2014-6-13,82.8,71.7,68.3,73.7,69.3,67.2,99,93,66,29.86,29.69,21,2,21,0.55
2014-6-14,72.6,67.1,58.6,68.3,58.6,49.6,98,75,56,30.05,29.76,21,4,21,0.00
2014-6-15,80.1,67.3,54.8,62.0,55.8,50.4,87,68,45,30.13,30.03,18,2,18,0.00
2014-6-16,85.9,73.3,57.6,66.2,60.2,55.3,93,66,41,30.13,30.00,14,1,14,0.00
2014-6-17,89.2,80.3,69.1,73.7,68.7,62.3,93,69,50,30.05,29.87,16,2,16,0.00
2014-6-18,90.8,83.2,76.0,72.1,68.0,60.9,78,61,45,29.93,29.78,21,4,21,0.00
2014-6-19,75.9,70.8,66.4,69.4,67.2,64.6,97,88,74,30.00,29.86,20,1,20,0.24
2014-6-20,79.2,69.0,58.4,64.9,54.6,49.2,93,62,38,30.01,29.89,13,2,13,0.00
2014-6-21,78.5,69.5,62.6,62.8,56.7,50.3,80,64,50,29.94,29.83,17,1,17,0.00
2014-6-22,77.7,68.3,59.0,65.6,60.0,56.9,98,76,53,30.00,29.87,11,1,16,0.00
2014-6-23,80.3,70.6,59.2,66.0,60.4,56.8,97,72,51,30.12,30.00,17,2,17,0.00
2014-6-24,83.3,74.1,63.6,65.4,61.0,54.8,89,65,41,30.12,29.98,18,3,18,0.00
2014-6-25,86.1,77.1,70.0,76.8,71.2,65.4,95,83,61,30.00,29.78,13,2,22,0.22
2014-6-26,82.8,75.2,68.9,71.4,68.5,65.3,98,81,58,29.87,29.79,18,2,18,0.32
2014-6-27,80.4,73.1,66.6,68.9,63.9,54.0,91,74,54,30.19,29.93,7,2,0,0.00
2014-6-28,83.1,72.3,59.3,66.3,60.2,-99.9,94,69,48,30.26,30.17,7,1,7,0.00
2014-6-29,83.4,73.9,62.2,66.2,61.9,57.1,94,68,46,30.23,30.09,18,1,18,0.00
2014-6-30,84.4,75.6,65.1,70.1,65.8,59.1,94,73,51,30.10,29.91,14,2,14,0.00
2014-7-1,89.7,80.3,70.9,74.4,70.8,66.3,89,74,56,29.93,29.79,20,4,20,0.00
2014-7-2,92.8,81.9,73.5,78.9,74.2,70.8,96,79,59,29.90,29.77,22,3,22,0.18
2014-7-3,89.2,79.5,72.0,77.8,74.1,71.1,98,85,66,29.93,29.79,43,3,43,0.08
2014-8-22,74.5,69.7,65.4,69.0,65.9,61.9,97,88,77,30.01,29.94,8,2,0,0.58
2014-8-23,69.9,66.0,61.8,66.6,63.1,60.6,97,91,80,30.10,29.98,5,0,0,0.15
2014-8-24,78.0,68.6,60.7,63.9,61.4,59.2,97,80,53,30.13,30.07,5,1,0,0.00
2014-8-25,81.4,69.4,57.6,65.5,61.1,56.5,98,77,52,30.16,30.10,5,0,0,0.00
2014-8-26,85.0,74.0,62.3,69.2,64.2,60.4,95,74,50,30.14,30.04,6,1,0,0.00
2014-8-27,88.0,75.2,62.2,71.5,66.0,60.6,96,75,48,30.05,29.84,4,1,0,0.00
2014-8-28,75.8,71.6,66.8,69.6,61.5,56.0,83,71,53,29.92,29.82,19,3,19,0.00
2014-8-29,75.9,73.2,66.8,60.3,56.4,52.7,75,57,46,30.20,30.13,14,2,14,0.00
2014-8-30,77.4,68.2,56.1,65.5,61.2,54.8,97,79,62,30.24,30.11,7,2,0,0.00
2014-8-31,88.9,76.6,71.1,76.3,70.9,63.1,95,83,60,30.12,29.94,10,3,0,0.04
2014-9-1,85.7,78.0,72.4,75.6,73.2,71.3,98,86,69,29.99,29.89,11,1,11,0.13
2014-9-2,89.8,81.4,72.1,75.0,72.2,68.8,97,76,51,29.91,29.79,18,3,23,0.07
2014-9-3,82.8,74.5,65.9,69.5,64.4,58.4,89,72,46,30.09,29.83,13,1,13,0.00
2014-9-4,86.2,74.5,61.8,67.9,63.4,60.1,96,71,46,30.17,30.08,13,2,14,0.00
2014-9-5,88.2,77.3,69.4,76.1,71.9,65.5,98,84,61,30.15,29.98,14,1,14,0.00
2014-9-6,91.4,77.2,68.6,76.6,71.8,67.0,96,84,55,29.98,29.81,21,2,21,0.15
2014-9-7,77.0,68.4,62.3,67.3,60.0,54.7,96,77,50,30.16,29.91,16,1,16,0.00
2014-9-8,74.5,66.5,60.0,63.5,58.9,54.9,92,77,58,30.27,30.15,24,3,24,0.00
2014-9-9,72.8,66.6,62.6,63.8,60.5,57.0,87,81,72,30.22,30.10,18,2,19,0.00
2014-9-10,78.1,69.8,64.4,64.0,61.5,59.1,90,76,53,30.10,29.98,17,1,17,0.00
2014-9-11,82.6,73.9,64.7,73.2,67.9,62.0,93,82,69,29.98,29.80,18,3,20,0.00
2014-9-12,75.2,66.2,57.6,63.6,55.8,52.8,85,70,50,30.15,29.91,16,2,16,0.00
2014-9-13,68.7,61.3,56.0,64.2,57.5,51.0,96,87,77,30.16,30.05,15,1,16,0.50
2014-9-14,67.4,57.3,48.6,54.5,50.7,47.2,96,80,54,30.28,30.15,15,1,15,0.00
2014-9-15,70.7,59.0,48.5,52.8,49.7,46.3,93,74,44,30.23,30.04,9,0,9,0.00
2014-9-16,70.7,61.8,55.2,61.2,55.5,51.5,96,81,60,30.04,29.93,13,1,13,0.06
2014-9-17,72.0,60.0,49.1,53.5,50.4,47.4,96,74,43,30.04,29.93,11,0,11,0.00
2014-9-18,74.0,62.2,49.9,58.5,53.8,48.5,96,76,48,30.07,29.93,11,1,13,0.00
2014-9-19,66.5,58.6,52.7,54.4,51.9,48.8,91,79,61,30.32,30.07,17,3,17,0.00
2014-9-20,76.2,64.6,52.5,63.1,58.1,50.8,96,81,58,30.30,30.01,18,2,18,0.00
2014-9-21,76.8,69.1,63.8,68.6,64.9,61.3,97,87,69,30.01,29.59,21,1,25,0.00
2014-9-22,68.4,63.3,52.6,62.8,52.4,43.8,89,68,50,30.18,29.62,21,4,21,0.00
2014-9-23,69.3,57.0,44.6,49.3,45.6,40.6,89,68,43,30.38,30.17,11,1,11,0.00
2014-9-24,69.6,59.8,48.7,59.5,53.8,47.1,96,81,63,30.49,30.38,24,3,25,0.00
2014-9-25,62.1,59.2,56.1,59.4,57.0,53.8,96,93,79,30.39,30.19,19,4,22,0.40
2014-9-26,74.3,62.2,52.9,58.2,54.1,50.6,94,77,50,30.21,30.13,13,2,14,0.00
2014-9-27,81.5,66.4,54.3,62.2,57.2,52.1,94,75,46,30.20,30.13,10,0,11,0.00
2014-9-28,83.0,68.7,54.4,65.2,59.0,53.3,98,74,44,30.15,29.99,8,0,8,0.00
2014-9-29,76.7,66.7,60.4,63.9,61.2,58.4,94,84,57,29.99,29.88,9,0,9,0.02
2014-9-30,74.9,65.8,59.7,62.9,59.8,55.9,97,83,53,29.93,29.85,19,1,19,0.00
2014-10-1,67.8,63.1,58.9,60.6,58.8,56.9,95,86,75,30.04,29.93,12,1,13,0.00
2014-10-2,66.8,62.5,59.3,59.1,57.7,56.6,92,84,74,30.12,30.03,15,1,15,0.00
2014-10-3,69.3,61.4,54.5,58.9,56.5,53.2,97,85,67,30.08,29.78,18,3,18,0.00
2014-10-4,68.0,61.0,47.5,66.0,54.6,34.8,100,81,54,29.78,29.51,24,5,24,0.45
2014-10-5,58.6,48.6,37.8,42.1,37.9,34.1,92,68,48,29.97,29.73,17,2,20,0.00
2014-10-6,69.5,56.1,40.1,53.3,46.0,38.3,95,72,42,30.03,29.95,25,5,27,0.00
2014-10-7,68.2,63.9,59.2,60.6,55.7,53.3,95,75,60,30.01,29.83,27,4,27,0.13
2014-10-8,71.3,64.4,54.8,62.3,53.7,44.1,96,70,46,29.94,29.77,26,5,26,0.19
2014-10-9,69.5,57.7,46.6,46.8,43.9,40.5,88,62,37,30.06,29.93,21,3,21,0.00
2014-10-10,58.3,54.3,47.1,50.4,45.3,41.3,87,72,57,30.11,30.02,11,0,11,0.01
2014-10-11,54.0,51.0,46.3,51.6,49.1,45.2,97,93,83,30.15,29.98,13,1,13,0.40
2014-10-12,61.4,50.7,40.3,48.1,44.1,38.9,97,80,49,30.29,30.14,11,1,11,0.00
2014-10-13,63.2,57.5,50.9,62.5,54.8,47.8,98,91,82,30.30,30.18,14,1,14,0.02
2014-10-14,76.1,69.0,62.0,67.2,64.4,61.3,98,86,69,30.19,30.02,26,4,26,0.00
2014-10-15,75.6,70.2,67.1,70.4,67.7,64.5,98,92,83,30.02,29.74,24,5,24,0.81
2014-10-16,69.1,64.0,56.7,68.2,59.8,54.1,98,87,67,29.74,29.65,21,3,21,0.27
2014-10-17,70.5,62.1,55.4,57.2,54.5,51.8,95,78,56,29.75,29.65,19,2,19,0.00
2014-10-18,67.5,59.2,52.5,57.1,50.5,42.4,96,74,53,29.74,29.56,25,3,25,0.00
2014-10-19,53.3,49.1,38.1,44.3,36.7,29.6,82,63,42,30.05,29.73,26,4,26,0.00
2014-10-20,60.8,47.2,32.9,45.3,38.0,30.4,93,72,47,30.11,29.92,18,2,18,0.00
2014-10-21,67.7,57.5,49.3,54.3,50.0,44.9,92,77,55,29.92,29.76,13,1,13,0.00
2014-10-22,54.8,53.0,50.9,53.0,51.0,49.3,95,93,89,29.87,29.74,21,6,21,0.68
2014-10-23,55.4,50.0,48.2,49.5,45.9,45.1,95,84,73,29.81,29.69,25,6,25,0.21
2014-10-24,68.0,57.8,51.0,49.6,46.8,42.1,82,68,48,29.84,29.75,19,3,24,0.00
2014-10-25,67.0,56.8,41.9,49.1,43.0,34.5,78,61,49,29.88,29.57,17,3,21,0.00
2014-10-26,63.6,57.8,44.5,49.2,41.5,37.5,83,56,41,29.85,29.56,28,4,28,0.00
2014-10-27,65.1,52.1,41.8,43.9,39.3,36.3,83,62,38,30.02,29.85,17,2,17,0.00
2014-10-28,72.3,55.8,46.9,57.8,47.6,41.8,89,70,54,30.00,29.87,9,1,9,0.00
2014-10-29,62.6,60.8,58.8,58.3,57.2,55.8,92,88,85,29.87,29.84,8,2,8,0.00
2014-10-30,57.0,48.7,38.8,47.5,41.8,34.7,97,79,51,30.01,29.92,5,1,0,0.02
2014-10-31,49.8,43.3,34.9,41.4,36.8,31.5,90,78,65,30.01,29.79,14,2,14,0.00
2014-11-1,49.2,44.6,42.3,45.4,40.6,36.0,94,86,68,29.80,29.72,25,6,25,0.86
2014-11-2,46.7,42.4,38.3,37.3,28.1,19.1,83,58,41,30.09,29.76,33,8,33,0.01
2014-11-3,59.4,47.5,36.2,32.8,26.5,18.9,71,47,22,30.18,30.09,24,5,24,0.00
2014-11-4,69.5,58.5,47.1,43.6,35.4,27.5,67,44,23,30.15,29.98,16,2,16,0.00
2014-11-5,63.0,55.5,50.6,48.1,42.0,35.7,81,61,41,30.11,29.99,18,2,18,0.00
2014-11-6,52.6,48.5,46.0,49.7,46.9,42.1,100,94,69,30.10,29.58,13,1,13,0.49
2014-11-7,51.3,44.9,36.3,46.3,36.4,25.5,97,73,50,29.96,29.57,31,6,31,0.00
2014-11-8,47.1,40.2,29.3,36.5,29.9,24.4,84,67,53,30.03,29.88,13,2,16,0.00
2014-11-9,55.1,46.0,36.9,40.6,36.5,31.8,90,71,48,29.99,29.86,13,1,13,0.00
2014-11-10,60.8,46.8,33.5,42.5,36.4,30.7,93,69,45,30.14,29.99,13,1,13,0.00
2014-11-11,68.7,54.2,39.0,58.7,49.6,36.9,98,85,69,30.09,29.86,12,1,12,0.00
2014-11-12,66.2,55.7,44.3,59.8,47.1,30.8,98,75,45,30.05,29.83,21,2,21,0.00
2014-11-13,44.2,39.1,32.6,34.1,30.7,28.1,95,73,56,30.10,29.97,9,1,13,0.07
2014-11-14,39.5,34.7,31.3,32.6,25.4,20.5,96,70,50,30.18,29.95,13,3,23,0.15
2014-11-15,42.4,32.9,27.5,26.0,21.4,18.3,81,61,40,30.34,30.18,15,2,15,0.00
2014-11-16,42.2,36.0,26.8,36.0,28.7,21.1,94,75,57,30.35,30.03,15,1,15,0.09
2014-11-17,47.7,41.2,37.4,47.2,39.5,32.5,98,94,72,30.04,29.47,23,3,23,1.13
2014-11-18,40.8,27.7,21.8,32.8,10.9,4.7,73,49,37,30.13,29.62,28,8,28,0.01
2014-11-19,31.8,26.0,19.2,19.1,11.2,6.8,65,53,40,30.27,30.00,19,5,19,0.00
2014-11-20,46.5,36.4,28.1,30.1,21.3,12.4,72,54,45,30.03,29.81,22,5,22,0.00
2014-11-21,35.3,29.0,24.7,13.7,11.9,10.4,60,49,38,30.48,30.03,24,4,24,0.00
2014-11-22,43.8,33.8,19.6,26.3,18.6,11.9,75,54,42,30.48,30.18,28,4,28,0.00
2014-11-23,54.3,45.7,36.4,48.0,31.3,26.0,92,59,38,30.20,29.88,12,3,12,0.00
2014-11-24,70.1,64.0,50.9,62.8,58.9,48.2,97,84,68,29.88,29.53,41,10,41,0.54
2014-11-25,66.2,52.1,43.0,59.8,38.8,32.7,82,60,47,30.14,29.70,20,4,24,0.00
2014-11-26,46.3,36.9,32.6,37.4,33.6,31.1,100,88,62,30.16,29.76,23,4,23,0.71
2014-11-27,37.2,33.8,28.9,32.3,30.1,25.3,93,86,76,30.07,29.86,16,2,16,0.35
2014-11-28,35.7,30.4,24.5,28.4,22.0,17.1,92,72,47,30.25,30.06,22,3,22,0.06
2014-11-29,34.2,27.6,20.5,28.1,20.8,17.4,89,75,63,30.33,30.16,10,1,10,0.00
2014-11-30,56.0,46.4,34.3,45.7,37.7,28.5,83,72,63,30.16,30.02,19,3,19,0.05
2014-12-1,67.3,52.4,38.9,54.0,44.6,26.1,90,75,60,30.42,30.05,22,4,22,0.07
2014-12-2,41.8,36.4,32.6,41.0,30.4,22.9,97,80,59,30.56,30.22,17,3,17,0.23
2014-12-3,45.3,41.8,37.3,44.5,39.6,29.1,97,92,72,30.22,29.94,22,4,22,0.17
2014-12-4,43.5,36.3,28.8,29.9,27.2,24.0,89,70,54,30.47,30.21,13,2,13,0.00
2014-12-5,42.7,37.2,30.7,39.2,31.8,23.3,96,81,63,30.51,30.30,15,2,15,0.12
2014-12-6,46.7,42.4,38.4,45.9,41.5,37.4,97,96,93,30.31,30.02,22,2,22,0.85
2014-12-7,44.4,37.3,29.3,37.7,23.9,11.9,93,60,38,30.56,30.16,25,7,25,0.01
2014-12-8,34.6,28.3,23.3,32.0,18.1,5.1,90,66,42,30.60,30.22,21,5,21,0.00
2014-12-9,42.1,38.0,34.2,40.4,36.4,31.9,96,94,85,30.23,29.69,26,7,26,0.95
2014-12-10,40.4,37.0,31.1,36.2,30.7,24.5,87,78,66,29.71,29.62,28,8,28,0.01
2014-12-11,33.9,31.8,30.1,30.6,27.9,24.2,94,86,71,29.88,29.65,23,6,23,0.03
2014-12-12,37.3,34.3,30.8,29.7,26.6,24.1,89,74,66,30.00,29.88,14,4,19,0.02
2014-12-13,39.6,36.1,31.2,32.1,29.1,25.1,82,75,70,30.00,29.89,17,4,21,0.00
2014-12-14,44.7,40.1,35.6,37.0,33.2,29.1,81,76,70,29.96,29.84,20,4,20,0.00
2014-12-15,46.7,39.9,32.0,37.7,34.3,30.2,94,80,68,30.06,29.95,13,1,13,0.00
2014-12-16,49.7,40.7,30.1,45.3,39.0,28.8,100,94,80,30.06,29.79,15,2,15,0.15
2014-12-17,50.3,43.7,35.4,44.5,37.2,25.8,97,79,61,29.92,29.77,27,5,27,0.01
2014-12-18,38.2,35.2,32.3,28.2,25.6,22.5,77,68,61,30.03,29.91,26,5,26,0.00
2014-12-19,40.7,34.9,29.9,28.7,26.0,22.2,77,70,55,30.16,29.96,18,4,18,0.00
2014-12-20,32.5,31.3,29.9,25.7,23.8,22.4,81,74,68,30.27,30.14,11,1,11,0.00
2014-12-21,38.3,31.5,27.4,26.4,24.4,22.6,86,75,60,30.31,30.23,15,1,15,0.00
2014-12-22,42.6,36.5,28.5,41.5,33.0,24.3,96,87,78,30.30,30.07,14,2,14,0.04
2014-12-23,47.8,46.2,42.6,47.0,45.4,41.5,98,97,96,30.07,29.99,18,3,18,0.12
2014-12-24,62.2,51.6,45.2,61.6,51.1,44.7,99,98,97,30.01,29.48,21,3,21,0.64
2014-12-25,62.7,49.4,38.7,61.7,40.6,30.8,98,73,53,30.14,29.48,34,6,34,0.08
2014-12-26,48.3,39.6,32.4,34.6,31.6,28.5,87,74,56,30.27,30.13,17,2,17,0.00
2014-12-27,57.2,44.6,34.8,37.2,33.7,30.5,86,67,43,30.25,30.03,10,1,10,0.00
2014-12-28,54.0,46.1,39.2,45.1,40.0,34.8,90,78,69,30.04,29.85,13,2,13,0.00
2014-12-29,44.2,38.0,30.6,35.0,25.4,20.6,76,61,43,30.22,30.04,15,2,15,0.00
2014-12-30,35.2,29.8,22.7,22.6,18.5,14.3,76,63,45,30.38,30.22,14,2,14,0.00
2014-12-31,31.8,25.9,21.3,15.8,13.1,9.0,77,59,39,30.37,30.16,13,4,20,0.00
2015-1-1,40.5,32.0,24.6,22.2,15.1,9.9,63,50,36,30.16,29.96,27,7,27,0.00
2015-1-2,41.5,34.1,28.1,24.0,21.3,18.8,77,60,47,30.40,30.01,21,4,21,0.00